createdAt,value
2023-02-27T00:02:19.132Z,15.47
2023-02-27T00:04:47.072Z,15.46
2023-02-27T00:07:14.936Z,15.46
2023-02-27T00:09:42.909Z,15.38
2023-02-27T00:12:12.335Z,15.44
2023-02-27T00:14:40.177Z,15.39
2023-02-27T00:17:08.222Z,15.31
2023-02-27T00:19:35.911Z,15.42
2023-02-27T00:22:03.519Z,15.46
2023-02-27T00:24:31.469Z,15.42
2023-02-27T00:26:59.173Z,15.35
2023-02-27T00:29:26.886Z,15.24
2023-02-27T00:31:54.659Z,15.11
2023-02-27T00:34:22.404Z,15.09
2023-02-27T00:36:50.136Z,15.29
2023-02-27T00:39:17.891Z,15.27
2023-02-27T00:41:45.772Z,15.25
2023-02-27T00:44:13.441Z,15.20
2023-02-27T00:46:41.392Z,14.83
2023-02-27T00:49:09.379Z,14.62
2023-02-27T00:51:37.219Z,15.09
2023-02-27T00:54:05.008Z,15.20
2023-02-27T00:56:32.749Z,15.23
2023-02-27T00:59:00.442Z,14.70
2023-02-27T01:01:28.510Z,14.72
2023-02-27T01:03:57.752Z,14.88
2023-02-27T01:06:25.476Z,14.79
2023-02-27T01:08:53.296Z,14.75
2023-02-27T01:11:21.027Z,14.67
2023-02-27T01:13:48.841Z,14.80
2023-02-27T01:16:17.855Z,14.78
2023-02-27T01:18:45.968Z,15.07
2023-02-27T01:21:13.873Z,14.78
2023-02-27T01:23:41.616Z,14.97
2023-02-27T01:26:09.406Z,14.85
2023-02-27T01:28:37.342Z,14.62
2023-02-27T01:31:05.945Z,15.09
2023-02-27T01:33:33.538Z,15.11
2023-02-27T01:36:01.826Z,14.93
2023-02-27T01:38:29.639Z,14.87
2023-02-27T01:40:57.627Z,14.97
2023-02-27T01:43:25.617Z,13.87
2023-02-27T01:45:54.202Z,14.45
2023-02-27T01:48:33.633Z,14.91
2023-02-27T01:51:09.049Z,14.55
2023-02-27T01:53:40.150Z,13.90
2023-02-27T01:56:16.368Z,14.90
2023-02-27T01:58:47.947Z,14.85
2023-02-27T02:01:16.524Z,14.52
2023-02-27T02:04:01.222Z,14.88
2023-02-27T02:06:36.335Z,14.86
2023-02-27T02:09:04.861Z,14.88
2023-02-27T02:11:32.668Z,14.30
2023-02-27T02:14:02.947Z,14.70
2023-02-27T02:16:49.439Z,14.81
2023-02-27T02:19:53.187Z,14.81
2023-02-27T02:22:45.480Z,14.81
2023-02-27T02:25:18.271Z,14.68
2023-02-27T02:28:00.270Z,14.61
2023-02-27T02:30:46.782Z,14.61
2023-02-27T02:33:52.191Z,14.60
2023-02-27T02:36:48.214Z,14.39
2023-02-27T02:39:44.620Z,14.26
2023-02-27T02:42:37.814Z,14.56
2023-02-27T02:45:22.796Z,14.51
2023-02-27T02:48:00.595Z,14.34
2023-02-27T02:50:31.474Z,14.45
2023-02-27T02:53:08.515Z,14.48
2023-02-27T02:55:59.040Z,14.46
2023-02-27T02:58:32.534Z,14.43
2023-02-27T03:01:14.987Z,14.39
2023-02-27T03:03:53.676Z,13.87
2023-02-27T03:06:46.409Z,14.22
2023-02-27T03:09:32.666Z,14.44
2023-02-27T03:12:04.466Z,13.59
2023-02-27T03:14:42.156Z,14.16
2023-02-27T03:17:27.855Z,14.45
2023-02-27T03:20:00.023Z,14.30
2023-02-27T03:22:34.706Z,13.79
2023-02-27T03:25:07.073Z,14.44
2023-02-27T03:27:42.215Z,14.24
2023-02-27T03:30:20.262Z,14.51
2023-02-27T03:33:00.749Z,14.31
2023-02-27T03:35:58.001Z,14.54
2023-02-27T03:38:48.476Z,14.44
2023-02-27T03:41:39.786Z,14.46
2023-02-27T03:44:42.749Z,14.55
2023-02-27T03:47:10.610Z,13.87
2023-02-27T03:49:39.148Z,14.54
2023-02-27T03:52:09.048Z,14.28
2023-02-27T03:54:42.252Z,14.45
2023-02-27T03:57:10.963Z,14.44
2023-02-27T03:59:39.811Z,14.19
2023-02-27T04:02:08.483Z,14.39
2023-02-27T04:04:37.865Z,14.00
2023-02-27T04:07:46.281Z,14.32
2023-02-27T04:10:35.800Z,14.23
2023-02-27T04:13:18.973Z,14.19
2023-02-27T04:16:34.478Z,14.15
2023-02-27T04:19:20.550Z,14.12
2023-02-27T04:21:52.301Z,14.06
2023-02-27T04:24:35.570Z,14.08
2023-02-27T04:27:22.009Z,14.07
2023-02-27T04:29:56.046Z,14.07
2023-02-27T04:32:35.848Z,14.06
2023-02-27T04:35:13.320Z,13.96
2023-02-27T04:37:54.951Z,13.82
2023-02-27T04:40:35.065Z,13.68
2023-02-27T04:43:06.144Z,13.93
2023-02-27T04:45:38.610Z,13.60
2023-02-27T04:48:13.367Z,13.93
2023-02-27T04:50:47.920Z,13.93
2023-02-27T04:53:24.808Z,13.94
2023-02-27T04:55:57.809Z,13.47
2023-02-27T04:58:45.697Z,14.02
2023-02-27T05:01:23.733Z,13.92
2023-02-27T05:03:54.795Z,13.44
2023-02-27T05:06:27.823Z,13.79
2023-02-27T05:09:09.333Z,13.98
2023-02-27T05:11:45.419Z,14.04
2023-02-27T05:14:20.891Z,14.07
2023-02-27T05:17:13.960Z,14.07
2023-02-27T05:19:44.907Z,13.62
2023-02-27T05:22:34.753Z,13.84
2023-02-27T05:25:14.457Z,13.66
2023-02-27T05:28:00.404Z,13.59
2023-02-27T05:30:38.686Z,13.33
2023-02-27T05:33:31.093Z,13.79
2023-02-27T05:36:21.941Z,14.00
2023-02-27T05:39:00.579Z,14.10
2023-02-27T05:41:44.357Z,13.79
2023-02-27T05:44:23.320Z,13.93
2023-02-27T05:46:59.445Z,13.76
2023-02-27T05:49:33.520Z,13.75
2023-02-27T05:52:05.123Z,14.12
2023-02-27T05:54:44.874Z,14.17
2023-02-27T05:57:18.607Z,14.21
2023-02-27T06:00:24.849Z,14.05
2023-02-27T06:02:53.429Z,14.06
2023-02-27T06:05:21.757Z,14.08
2023-02-27T06:07:49.450Z,14.02
2023-02-27T06:10:19.820Z,14.14
2023-02-27T06:12:47.996Z,14.39
2023-02-27T06:15:17.505Z,13.94
2023-02-27T06:17:45.228Z,14.48
2023-02-27T06:20:13.143Z,14.17
2023-02-27T06:22:41.228Z,14.03
2023-02-27T06:25:09.876Z,14.50
2023-02-27T06:27:37.910Z,14.56
2023-02-27T06:30:07.540Z,14.60
2023-02-27T06:32:35.636Z,14.59
2023-02-27T06:35:03.589Z,14.40
2023-02-27T06:37:31.489Z,14.23
2023-02-27T06:39:59.191Z,14.61
2023-02-27T06:42:27.432Z,14.67
2023-02-27T06:44:56.108Z,14.47
2023-02-27T06:47:25.909Z,14.62
2023-02-27T06:49:53.738Z,14.79
2023-02-27T06:52:21.651Z,14.33
2023-02-27T06:54:52.037Z,14.69
2023-02-27T06:57:20.080Z,14.83
2023-02-27T06:59:49.708Z,14.81
2023-02-27T07:02:18.033Z,14.63
2023-02-27T07:04:45.962Z,14.70
2023-02-27T07:07:35.453Z,14.79
2023-02-27T07:10:02.990Z,14.18
2023-02-27T07:12:32.483Z,14.67
2023-02-27T07:15:00.353Z,14.66
2023-02-27T07:17:28.055Z,14.78
2023-02-27T07:19:55.798Z,14.68
2023-02-27T07:22:23.813Z,14.66
2023-02-27T07:24:51.755Z,14.67
2023-02-27T07:27:19.491Z,13.77
2023-02-27T07:29:47.290Z,14.55
2023-02-27T07:32:15.228Z,14.82
2023-02-27T07:34:43.412Z,14.83
2023-02-27T07:37:11.254Z,14.46
2023-02-27T07:39:39.660Z,14.80
2023-02-27T07:42:07.473Z,14.85
2023-02-27T07:44:35.400Z,14.70
2023-02-27T07:47:03.608Z,15.00
2023-02-27T07:49:31.415Z,14.75
2023-02-27T07:51:59.201Z,15.05
2023-02-27T07:54:27.792Z,14.63
2023-02-27T07:56:55.597Z,14.98
2023-02-27T07:59:23.319Z,15.07
2023-02-27T08:01:51.117Z,15.07
2023-02-27T08:04:21.792Z,15.01
2023-02-27T08:06:49.475Z,14.90
2023-02-27T08:09:17.372Z,14.94
2023-02-27T08:11:47.248Z,15.02
2023-02-27T08:14:16.654Z,15.07
2023-02-27T08:16:44.781Z,15.16
2023-02-27T08:19:20.828Z,15.10
2023-02-27T08:21:48.660Z,14.98
2023-02-27T08:24:16.352Z,15.17
2023-02-27T08:26:44.234Z,15.32
2023-02-27T08:29:12.124Z,15.01
2023-02-27T08:31:40.286Z,15.44
2023-02-27T08:34:10.640Z,15.56
2023-02-27T08:36:39.284Z,15.31
2023-02-27T08:39:08.221Z,15.60
2023-02-27T08:41:36.247Z,15.51
2023-02-27T08:44:04.259Z,15.27
2023-02-27T08:46:32.122Z,15.32
2023-02-27T08:49:00.088Z,15.05
2023-02-27T08:51:28.526Z,15.38
2023-02-27T08:53:59.160Z,15.40
2023-02-27T08:56:28.213Z,15.35
2023-02-27T08:58:56.975Z,15.28
2023-02-27T09:01:33.052Z,15.09
2023-02-27T09:04:06.825Z,15.41
2023-02-27T09:06:36.875Z,15.57
2023-02-27T09:09:05.412Z,15.60
2023-02-27T09:11:33.217Z,15.56
2023-02-27T09:14:01.592Z,15.66
2023-02-27T09:16:29.973Z,15.51
2023-02-27T09:18:58.156Z,15.52
2023-02-27T09:21:26.413Z,15.65
2023-02-27T09:23:55.162Z,14.57
2023-02-27T09:26:39.369Z,15.15
2023-02-27T09:29:08.658Z,15.41
2023-02-27T09:31:36.693Z,15.38
2023-02-27T09:34:04.953Z,15.60
2023-02-27T09:36:33.151Z,15.39
2023-02-27T09:39:00.926Z,15.55
2023-02-27T09:41:57.761Z,15.64
2023-02-27T09:44:46.645Z,15.66
2023-02-27T09:47:29.478Z,15.31
2023-02-27T09:50:02.356Z,15.64
2023-02-27T09:52:32.806Z,15.61
2023-02-27T09:55:00.943Z,15.08
2023-02-27T09:57:37.920Z,15.59
2023-02-27T10:00:19.005Z,15.27
2023-02-27T10:02:56.051Z,15.24
2023-02-27T10:05:49.268Z,15.49
2023-02-27T10:08:20.071Z,15.62
2023-02-27T10:11:00.479Z,15.64
2023-02-27T10:13:46.995Z,15.68
2023-02-27T10:16:19.787Z,15.61
2023-02-27T10:18:58.135Z,15.77
2023-02-27T10:21:33.667Z,15.79
2023-02-27T10:24:22.348Z,15.73
2023-02-27T10:26:55.418Z,15.77
2023-02-27T10:29:33.427Z,15.77
2023-02-27T10:32:09.774Z,15.60
2023-02-27T10:34:42.033Z,15.72
2023-02-27T10:37:14.850Z,15.74
2023-02-27T10:39:50.554Z,15.79
2023-02-27T10:42:18.942Z,15.81
2023-02-27T10:44:53.625Z,15.34
2023-02-27T10:47:24.076Z,15.71
2023-02-27T10:49:53.435Z,15.61
2023-02-27T10:52:21.776Z,15.74
2023-02-27T10:54:49.499Z,15.92
2023-02-27T10:57:23.710Z,15.92
2023-02-27T11:00:38.600Z,15.93
2023-02-27T11:03:08.520Z,15.92
2023-02-27T11:05:37.526Z,15.92
2023-02-27T11:08:22.022Z,15.71
2023-02-27T11:10:56.866Z,15.98
2023-02-27T11:13:27.291Z,15.91
2023-02-27T11:16:21.977Z,16.01
2023-02-27T11:18:52.631Z,16.04
2023-02-27T11:21:27.371Z,16.05
2023-02-27T11:24:00.459Z,16.07
2023-02-27T11:26:40.336Z,16.07
2023-02-27T11:29:20.469Z,16.03
2023-02-27T11:32:05.606Z,16.10
2023-02-27T11:34:40.681Z,16.11
2023-02-27T11:37:26.002Z,16.15
2023-02-27T11:40:05.720Z,15.78
2023-02-27T11:42:36.635Z,16.14
2023-02-27T11:46:21.414Z,16.11
2023-02-27T11:48:39.893Z,16.04
2023-02-27T11:51:07.717Z,16.06
2023-02-27T11:54:03.609Z,16.09
2023-02-27T11:56:36.485Z,16.12
2023-02-27T11:59:16.260Z,16.15
2023-02-27T12:02:00.638Z,15.94
2023-02-27T12:05:13.154Z,16.28
2023-02-27T12:07:56.067Z,16.11
2023-02-27T12:10:37.117Z,16.10
2023-02-27T12:13:14.277Z,16.34
2023-02-27T12:16:00.596Z,16.36
2023-02-27T12:18:52.696Z,16.35
2023-02-27T12:21:38.359Z,16.13
2023-02-27T12:24:25.203Z,16.35
2023-02-27T12:27:10.064Z,16.39
2023-02-27T12:29:48.093Z,16.59
2023-02-27T12:32:57.642Z,16.77
2023-02-27T12:35:33.399Z,16.32
2023-02-27T12:38:02.148Z,16.65
2023-02-27T12:41:06.754Z,16.82
2023-02-27T12:43:55.976Z,16.96
2023-02-27T12:46:27.977Z,17.00
2023-02-27T12:49:10.463Z,17.00
2023-02-27T12:51:53.159Z,16.98
2023-02-27T12:54:57.008Z,16.93
2023-02-27T12:57:45.045Z,16.61
2023-02-27T13:00:21.117Z,16.74
2023-02-27T13:02:58.200Z,16.69
2023-02-27T13:05:43.183Z,16.72
2023-02-27T13:08:43.673Z,16.72
2023-02-27T13:11:22.162Z,16.65
2023-02-27T13:14:17.692Z,16.44
2023-02-27T13:16:56.686Z,16.49
2023-02-27T13:19:29.288Z,16.57
2023-02-27T13:22:18.569Z,16.16
2023-02-27T13:24:51.803Z,16.43
2023-02-27T13:27:29.861Z,16.53
2023-02-27T13:30:04.061Z,16.45
2023-02-27T13:32:44.953Z,16.38
2023-02-27T13:35:31.506Z,16.38
2023-02-27T13:38:31.169Z,16.29
2023-02-27T13:41:21.340Z,16.34
2023-02-27T13:43:53.355Z,16.50
2023-02-27T13:46:29.706Z,16.25
2023-02-27T13:49:14.669Z,16.44
2023-02-27T13:51:50.551Z,15.98
2023-02-27T13:54:29.266Z,16.40
2023-02-27T13:56:59.978Z,16.40
2023-02-27T13:59:30.134Z,16.37
2023-02-27T14:01:59.248Z,16.47
2023-02-27T14:04:33.411Z,16.51
2023-02-27T14:07:09.613Z,16.51
2023-02-27T14:09:42.336Z,16.53
2023-02-27T14:12:42.547Z,16.57
2023-02-27T14:15:17.921Z,16.57
2023-02-27T14:17:48.673Z,16.60
2023-02-27T14:20:19.563Z,16.62
2023-02-27T14:23:15.732Z,16.60
2023-02-27T14:26:05.522Z,16.58
2023-02-27T14:28:47.825Z,16.59
2023-02-27T14:31:30.602Z,16.57
2023-02-27T14:34:05.415Z,16.43
2023-02-27T14:36:40.657Z,16.41
2023-02-27T14:39:26.822Z,16.37
2023-02-27T14:42:26.200Z,16.50
2023-02-27T14:44:54.777Z,16.51
2023-02-27T14:47:35.613Z,16.15
2023-02-27T14:50:05.913Z,16.53
2023-02-27T14:52:43.106Z,16.37
2023-02-27T14:55:35.425Z,16.48
2023-02-27T14:58:18.642Z,16.36
2023-02-27T15:01:10.357Z,16.38
2023-02-27T15:03:45.826Z,16.34
2023-02-27T15:06:23.219Z,16.20
2023-02-27T15:08:54.700Z,16.06
2023-02-27T15:11:24.061Z,16.02
2023-02-27T15:13:59.212Z,16.08
2023-02-27T15:16:37.812Z,15.84
2023-02-27T15:19:23.859Z,16.00
2023-02-27T15:22:04.111Z,15.97
2023-02-27T15:24:49.320Z,15.91
2023-02-27T15:27:22.807Z,15.91
2023-02-27T15:29:56.158Z,15.69
2023-02-27T15:32:26.822Z,15.93
2023-02-27T15:34:58.193Z,15.21
2023-02-27T15:37:34.162Z,15.94
2023-02-27T15:40:03.470Z,15.87
2023-02-27T15:42:36.537Z,14.80
2023-02-27T15:45:06.622Z,15.71
2023-02-27T15:47:35.588Z,16.00
2023-02-27T15:50:14.626Z,16.06
2023-02-27T15:52:51.602Z,16.06
2023-02-27T15:55:26.557Z,16.12
2023-02-27T15:58:02.858Z,15.70
2023-02-27T16:00:34.424Z,16.09
2023-02-27T16:03:02.578Z,16.00
2023-02-27T16:05:39.688Z,16.21
2023-02-27T16:08:08.561Z,16.20
2023-02-27T16:10:41.698Z,16.20
2023-02-27T16:13:26.430Z,16.22
2023-02-27T16:16:07.747Z,16.34
2023-02-27T16:18:46.179Z,15.73
2023-02-27T16:21:16.835Z,16.42
2023-02-27T16:23:45.463Z,16.36
2023-02-27T16:26:29.453Z,16.00
2023-02-27T16:29:02.621Z,15.69
2023-02-27T16:31:33.801Z,15.95
2023-02-27T16:34:13.832Z,16.10
2023-02-27T16:36:52.657Z,16.12
2023-02-27T16:39:23.905Z,15.89
2023-02-27T16:41:56.085Z,16.12
2023-02-27T16:44:24.667Z,16.07
2023-02-27T16:46:58.804Z,16.08
2023-02-27T16:49:29.490Z,15.76
2023-02-27T16:51:57.921Z,15.97
2023-02-27T16:54:25.957Z,16.10
2023-02-27T16:56:53.680Z,16.06
2023-02-27T16:59:31.272Z,16.15
2023-02-27T17:02:00.477Z,16.16
2023-02-27T17:04:29.532Z,16.17
2023-02-27T17:06:59.451Z,16.05
2023-02-27T17:09:28.822Z,16.14
2023-02-27T17:12:00.651Z,16.12
2023-02-27T17:14:28.667Z,16.10
2023-02-27T17:16:59.570Z,16.00
2023-02-27T17:19:27.428Z,15.87
2023-02-27T17:21:55.622Z,15.95
2023-02-27T17:24:23.668Z,16.13
2023-02-27T17:26:52.679Z,16.12
2023-02-27T17:29:21.019Z,16.13
2023-02-27T17:31:49.040Z,15.66
2023-02-27T17:34:17.242Z,16.12
2023-02-27T17:36:46.523Z,16.24
2023-02-27T17:39:15.290Z,16.08
2023-02-27T17:41:43.961Z,16.26
2023-02-27T17:44:12.361Z,15.95
2023-02-27T17:46:40.825Z,16.22
2023-02-27T17:49:09.697Z,16.25
2023-02-27T17:51:37.880Z,15.74
2023-02-27T17:54:07.045Z,16.28
2023-02-27T17:56:36.939Z,15.64
2023-02-27T17:59:05.722Z,16.31
2023-02-27T18:01:33.550Z,16.21
2023-02-27T18:04:01.453Z,16.03
2023-02-27T18:06:30.736Z,16.03
2023-02-27T18:08:59.204Z,15.85
2023-02-27T18:11:27.128Z,16.23
2023-02-27T18:13:55.172Z,16.42
2023-02-27T18:16:23.386Z,16.12
2023-02-27T18:18:51.354Z,16.32
2023-02-27T18:21:21.642Z,16.27
2023-02-27T18:23:52.149Z,15.78
2023-02-27T18:26:30.800Z,16.23
2023-02-27T18:29:03.797Z,15.79
2023-02-27T18:31:34.500Z,16.05
2023-02-27T18:34:03.899Z,15.55
2023-02-27T18:36:32.493Z,16.36
2023-02-27T18:39:00.631Z,16.46
2023-02-27T18:41:29.444Z,16.64
2023-02-27T18:43:58.724Z,16.49
2023-02-27T18:46:28.431Z,16.59
2023-02-27T18:48:56.767Z,16.15
2023-02-27T18:51:25.108Z,16.16
2023-02-27T18:53:53.548Z,16.14
2023-02-27T18:56:25.103Z,15.61
2023-02-27T18:58:54.413Z,16.15
2023-02-27T19:01:26.266Z,16.06
2023-02-27T19:04:00.600Z,16.28
2023-02-27T19:06:29.056Z,15.85
2023-02-27T19:08:57.240Z,16.12
2023-02-27T19:11:29.690Z,16.32
2023-02-27T19:13:58.263Z,16.25
2023-02-27T19:16:27.532Z,16.70
2023-02-27T19:18:57.338Z,16.37
2023-02-27T19:21:26.767Z,16.42
2023-02-27T19:23:54.745Z,16.72
2023-02-27T19:26:23.582Z,16.30
2023-02-27T19:28:54.783Z,16.57
2023-02-27T19:31:24.508Z,16.36
2023-02-27T19:33:53.078Z,15.92
2023-02-27T19:36:23.434Z,16.31
2023-02-27T19:38:52.901Z,16.29
2023-02-27T19:41:21.695Z,16.53
2023-02-27T19:43:50.519Z,16.51
2023-02-27T19:46:21.553Z,16.60
2023-02-27T19:48:50.676Z,16.68
2023-02-27T19:51:24.037Z,16.71
2023-02-27T19:53:52.155Z,16.56
2023-02-27T19:56:25.835Z,16.29
2023-02-27T19:58:54.376Z,16.76
2023-02-27T20:01:31.611Z,16.39
2023-02-27T20:04:01.452Z,16.31
2023-02-27T20:06:31.730Z,16.56
2023-02-27T20:08:59.977Z,16.65
2023-02-27T20:11:31.810Z,16.60
2023-02-27T20:14:00.482Z,16.30
2023-02-27T20:16:31.122Z,16.14
2023-02-27T20:18:59.210Z,16.33
2023-02-27T20:21:28.982Z,16.24
2023-02-27T20:23:58.385Z,16.38
2023-02-27T20:26:32.513Z,16.37
2023-02-27T20:29:05.827Z,16.48
2023-02-27T20:31:35.285Z,16.51
2023-02-27T20:34:06.312Z,16.48
2023-02-27T20:36:35.670Z,16.48
2023-02-27T20:39:04.565Z,16.06
2023-02-27T20:41:34.778Z,16.37
2023-02-27T20:44:04.162Z,16.22
2023-02-27T20:46:31.929Z,16.25
2023-02-27T20:49:01.652Z,16.45
2023-02-27T20:51:35.241Z,15.89
2023-02-27T20:54:06.928Z,16.15
2023-02-27T20:56:38.298Z,16.22
2023-02-27T20:59:08.530Z,16.38
2023-02-27T21:01:38.444Z,16.48
2023-02-27T21:04:07.751Z,16.43
2023-02-27T21:06:35.937Z,16.57
2023-02-27T21:09:06.628Z,16.54
2023-02-27T21:11:35.147Z,16.40
2023-02-27T21:14:06.113Z,16.47
2023-02-27T21:16:34.041Z,16.34
2023-02-27T21:19:02.679Z,16.17
2023-02-27T21:21:34.302Z,16.40
2023-02-27T21:24:02.414Z,16.56
2023-02-27T21:26:35.360Z,16.45
2023-02-27T21:30:45.851Z,16.33
2023-02-27T21:33:13.996Z,16.38
2023-02-27T21:35:46.674Z,16.56
2023-02-27T21:38:14.904Z,16.22
2023-02-27T21:40:43.015Z,16.59
2023-02-27T21:43:11.155Z,16.48
2023-02-27T21:45:44.930Z,16.56
2023-02-27T21:48:12.810Z,16.55
2023-02-27T21:50:42.088Z,16.55
2023-02-27T21:53:11.472Z,16.40
2023-02-27T21:55:39.232Z,16.07
2023-02-27T21:58:10.541Z,16.49
2023-02-27T22:00:38.805Z,16.07
2023-02-27T22:03:13.050Z,16.65
2023-02-27T22:05:42.232Z,16.62
2023-02-27T22:08:10.283Z,16.75
2023-02-27T22:10:48.715Z,16.60
2023-02-27T22:13:17.642Z,16.60
2023-02-27T22:15:46.788Z,16.79
2023-02-27T22:18:14.746Z,16.17
2023-02-27T22:20:42.935Z,16.54
2023-02-27T22:23:12.194Z,16.46
2023-02-27T22:25:41.376Z,16.59
2023-02-27T22:28:09.273Z,16.58
2023-02-27T22:30:37.167Z,16.02
2023-02-27T22:33:04.959Z,16.49
2023-02-27T22:35:33.227Z,16.22
2023-02-27T22:38:01.543Z,16.38
2023-02-27T22:40:31.786Z,16.34
2023-02-27T22:43:00.977Z,16.18
2023-02-27T22:45:29.752Z,16.37
2023-02-27T22:47:58.078Z,16.39
2023-02-27T22:50:34.176Z,16.05
2023-02-27T22:53:02.121Z,16.42
2023-02-27T22:55:29.991Z,16.26
2023-02-27T22:58:00.929Z,16.43
2023-02-27T23:00:29.470Z,16.43
2023-02-27T23:02:57.165Z,15.87
2023-02-27T23:05:24.874Z,16.09
2023-02-27T23:07:52.660Z,15.78
2023-02-27T23:10:20.347Z,16.32
2023-02-27T23:12:48.104Z,16.31
2023-02-27T23:15:17.184Z,15.89
2023-02-27T23:17:56.623Z,16.13
2023-02-27T23:20:26.582Z,16.39
2023-02-27T23:22:54.373Z,16.37
2023-02-27T23:25:22.342Z,16.23
2023-02-27T23:27:50.117Z,16.09
2023-02-27T23:30:18.195Z,16.06
2023-02-27T23:32:45.903Z,16.09
2023-02-27T23:35:16.534Z,16.12
2023-02-27T23:37:44.734Z,15.96
2023-02-27T23:40:13.163Z,16.00
2023-02-27T23:43:00.377Z,15.64
2023-02-27T23:45:28.296Z,15.99
2023-02-27T23:47:58.005Z,15.50
2023-02-27T23:50:31.788Z,15.48
2023-02-27T23:53:00.861Z,15.74
2023-02-27T23:55:31.120Z,15.47
2023-02-27T23:58:00.986Z,15.57
